Time;durP1;ratioP1;P1;durP2;ratioP2;P2;SDS_P1;SDS_P2;PMS_P1;PMS_P2;Temp;Humidity;BMP_temperature;BMP_pressure;BME280_temperature;BME280_humidity;BME280_pressure;Samples;Min_cycle;Max_cycle;Signal;HPM_P1;HPM_P2
2023/08/25 00:02:23;;;;;;;;;;;;;;;;;;6178713;28;19917;-66
2023/08/25 00:05:23;;;;;;;;;;;;;;;;;;6181562;28;20020;-66
2023/08/25 00:08:23;;;;;;;;;;;;;;;;;;6182083;28;19925;-65
2023/08/25 00:11:23;;;;;;;;;;;;;;;;;;6178120;28;19920;-66
2023/08/25 00:14:24;;;;;;;;;;;;;;;;;;6178022;28;19933;-67
2023/08/25 00:17:24;;;;;;;;;;;;;;;;;;6176758;28;19999;-67
2023/08/25 00:20:24;;;;;;;;;;;;;;;;;;6179443;28;19954;-67
2023/08/25 00:23:24;;;;;;;;;;;;;;;;;;6182424;28;19921;-72
2023/08/25 00:26:24;;;;;;;;;;;;;;;;;;6177775;28;19914;-71
2023/08/25 00:29:25;;;;;;;;;;;;;;;;;;6178782;28;19917;-72
2023/08/25 00:32:25;;;;;;;;;;;;;;;;;;6180970;28;19921;-71
2023/08/25 00:35:25;;;;;;;;;;;;;;;;;;6179676;28;19952;-71
2023/08/25 00:38:28;;;;;;;;;;;;;;;;;;5836407;28;10000335;-76
2023/08/25 00:41:28;;;;;;;;;;;;;;;;;;6194604;28;20335;-76
2023/08/25 00:44:28;;;;;;;;;;;;;;;;;;6187192;28;19910;-76
2023/08/25 00:47:28;;;;;;;;;;;;;;;;;;6178782;28;19917;-75
2023/08/25 00:50:29;;;;;;;;;;;;;;;;;;6181242;28;20005;-77
2023/08/25 00:53:29;;;;;;;;;;;;;;;;;;6183945;28;19914;-74
2023/08/25 00:56:29;;;;;;;;;;;;;;;;;;6183170;28;19918;-74
2023/08/25 00:59:29;;;;;;;;;;;;;;;;;;6186120;28;19910;-76
2023/08/25 01:02:29;;;;;;;;;;;;;;;;;;6184025;28;20434;-74
2023/08/25 01:05:29;;;;;;;;;;;;;;;;;;6182513;28;19910;-75
2023/08/25 01:08:30;;;;;;;;;;;;;;;;;;6187896;28;20112;-76
2023/08/25 01:11:30;;;;;;;;;;;;;;;;;;6184212;28;20023;-75
2023/08/25 01:14:30;;;;;;;;;;;;;;;;;;6182990;28;19909;-76
2023/08/25 01:17:31;;;;;;;;;;;;;;;;;;6182599;28;20327;-74
2023/08/25 01:20:31;;;;;;;;;;;;;;;;;;6182562;28;20364;-74
2023/08/25 01:23:31;;;;;;;;;;;;;;;;;;6186844;28;20008;-74
2023/08/25 01:26:32;;;;;;;;;;;;;;;;;;6190623;28;19941;-74
2023/08/25 01:29:32;;;;;;;;;;;;;;;;;;6183570;28;19910;-79
2023/08/25 01:32:32;;;;;;;;;;;;;;;;;;6184166;28;19909;-74
2023/08/25 01:35:32;;;;;;;;;;;;;;;;;;6184257;28;19910;-73
2023/08/25 01:38:32;;;;;;;;;;;;;;;;;;6180875;28;19914;-74
2023/08/25 01:41:32;;;;;;;;;;;;;;;;;;6186535;28;19968;-74
2023/08/25 01:44:32;;;;;;;;;;;;;;;;;;6168336;28;19918;-74
2023/08/25 01:47:32;;;;;;;;;;;;;;;;;;6183603;28;20097;-73
2023/08/25 01:50:33;;;;;;;;;;;;;;;;;;6182391;28;19933;-73
2023/08/25 01:53:33;;;;;;;;;;;;;;;;;;6188019;28;19920;-73
2023/08/25 01:56:33;;;;;;;;;;;;;;;;;;6185077;28;19913;-67
2023/08/25 01:59:33;;;;;;;;;;;;;;;;;;6185918;28;19910;-67
2023/08/25 02:02:33;;;;;;;;;;;;;;;;;;6179207;28;19941;-67
2023/08/25 02:05:33;;;;;;;;;;;;;;;;;;6185813;28;20004;-68
2023/08/25 02:08:33;;;;;;;;;;;;;;;;;;6182347;28;19936;-67
2023/08/25 02:11:33;;;;;;;;;;;;;;;;;;6186454;28;20352;-73
2023/08/25 02:14:34;;;;;;;;;;;;;;;;;;6183397;28;20001;-67
2023/08/25 02:17:34;;;;;;;;;;;;;;;;;;6182741;28;20383;-67
2023/08/25 02:20:34;;;;;;;;;;;;;;;;;;6184936;28;19913;-67
2023/08/25 02:23:34;;;;;;;;;;;;;;;;;;6184674;28;20064;-67
2023/08/25 02:26:34;;;;;;;;;;;;;;;;;;6186289;28;19914;-67
2023/08/25 02:29:34;;;;;;;;;;;;;;;;;;6184091;28;20070;-68
2023/08/25 02:32:34;;;;;;;;;;;;;;;;;;6184477;28;19910;-67
2023/08/25 02:35:35;;;;;;;;;;;;;;;;;;6186600;28;19929;-68
2023/08/25 02:38:35;;;;;;;;;;;;;;;;;;5841514;28;9999777;-68
2023/08/25 02:41:35;;;;;;;;;;;;;;;;;;6181559;28;20392;-68
2023/08/25 02:44:35;;;;;;;;;;;;;;;;;;6180243;28;20367;-67
2023/08/25 02:47:35;;;;;;;;;;;;;;;;;;6181592;28;19909;-68
2023/08/25 02:50:35;;;;;;;;;;;;;;;;;;6184768;28;19925;-68
2023/08/25 02:53:35;;;;;;;;;;;;;;;;;;6183879;28;20008;-74
2023/08/25 02:56:35;;;;;;;;;;;;;;;;;;6183090;28;19960;-68
2023/08/25 02:59:36;;;;;;;;;;;;;;;;;;6184353;28;20435;-66
2023/08/25 03:02:36;;;;;;;;;;;;;;;;;;6181261;28;20369;-67
2023/08/25 03:05:36;;;;;;;;;;;;;;;;;;6183466;28;19955;-67
2023/08/25 03:08:36;;;;;;;;;;;;;;;;;;6183416;28;19910;-72
2023/08/25 03:11:36;;;;;;;;;;;;;;;;;;6182273;28;19925;-74
2023/08/25 03:14:36;;;;;;;;;;;;;;;;;;6180811;28;19910;-74
2023/08/25 03:17:37;;;;;;;;;;;;;;;;;;6188110;28;19930;-73
2023/08/25 03:20:37;;;;;;;;;;;;;;;;;;6185162;28;19969;-73
2023/08/25 03:23:37;;;;;;;;;;;;;;;;;;6179949;28;19934;-73
2023/08/25 03:26:37;;;;;;;;;;;;;;;;;;6182585;28;19918;-73
2023/08/25 03:29:38;;;;;;;;;;;;;;;;;;6180476;28;20004;-73
2023/08/25 03:32:38;;;;;;;;;;;;;;;;;;6187164;28;20388;-73
2023/08/25 03:35:38;;;;;;;;;;;;;;;;;;6183832;28;19952;-74
2023/08/25 03:38:39;;;;;;;;;;;;;;;;;;6187211;28;19918;-73
2023/08/25 03:41:39;;;;;;;;;;;;;;;;;;6179842;28;20060;-71
2023/08/25 03:44:39;;;;;;;;;;;;;;;;;;6183750;28;19914;-73
2023/08/25 03:47:39;;;;;;;;;;;;;;;;;;6181649;28;19910;-73
2023/08/25 03:50:39;;;;;;;;;;;;;;;;;;6177650;28;20015;-73
2023/08/25 03:53:39;;;;;;;;;;;;;;;;;;6183145;28;19964;-73
2023/08/25 03:56:40;;;;;;;;;;;;;;;;;;6180596;28;20380;-74
2023/08/25 03:59:40;;;;;;;;;;;;;;;;;;6180645;28;20295;-73
2023/08/25 04:02:40;;;;;;;;;;;;;;;;;;6184230;28;19954;-73
2023/08/25 04:05:40;;;;;;;;;;;;;;;;;;6181026;28;20325;-73
2023/08/25 04:08:40;;;;;;;;;;;;;;;;;;6181738;28;19945;-73
2023/08/25 04:11:41;;;;;;;;;;;;;;;;;;6182595;28;19914;-73
2023/08/25 04:14:41;;;;;;;;;;;;;;;;;;6183157;28;19965;-73
2023/08/25 04:17:43;;;;;;;;;;;;;;;;;;6181710;28;19932;-74
2023/08/25 04:20:43;;;;;;;;;;;;;;;;;;6180489;28;20621;-74
2023/08/25 04:23:43;;;;;;;;;;;;;;;;;;6180770;28;19924;-74
2023/08/25 04:26:43;;;;;;;;;;;;;;;;;;6178357;28;19925;-73
2023/08/25 04:29:44;;;;;;;;;;;;;;;;;;6176235;28;20504;-73
2023/08/25 04:32:44;;;;;;;;;;;;;;;;;;6180363;28;19918;-73
2023/08/25 04:35:44;;;;;;;;;;;;;;;;;;6181568;28;19917;-72
2023/08/25 04:38:44;;;;;;;;;;;;;;;;;;6178784;28;19958;-72
2023/08/25 04:41:44;;;;;;;;;;;;;;;;;;6182722;28;19952;-72
2023/08/25 04:44:44;;;;;;;;;;;;;;;;;;6172056;28;19910;-73
2023/08/25 04:47:44;;;;;;;;;;;;;;;;;;6178247;28;19913;-73
2023/08/25 04:50:44;;;;;;;;;;;;;;;;;;6176628;28;20352;-74
2023/08/25 04:53:45;;;;;;;;;;;;;;;;;;6182552;28;19909;-73
2023/08/25 04:56:45;;;;;;;;;;;;;;;;;;6178232;28;19917;-74
2023/08/25 04:59:45;;;;;;;;;;;;;;;;;;6178719;28;19920;-74
2023/08/25 05:02:45;;;;;;;;;;;;;;;;;;6187101;28;20365;-69
2023/08/25 05:05:45;;;;;;;;;;;;;;;;;;6192413;28;19973;-69
2023/08/25 05:08:45;;;;;;;;;;;;;;;;;;6192634;28;20012;-69
2023/08/25 05:11:45;;;;;;;;;;;;;;;;;;6192585;28;19910;-69
2023/08/25 05:14:46;;;;;;;;;;;;;;;;;;6180938;28;19914;-70
2023/08/25 05:17:46;;;;;;;;;;;;;;;;;;6188081;28;19910;-68
2023/08/25 05:20:46;;;;;;;;;;;;;;;;;;6191583;28;19917;-72
2023/08/25 05:23:46;;;;;;;;;;;;;;;;;;6184584;28;19953;-72
2023/08/25 05:26:52;;;;;;;;;;;;;;;;;;6187625;28;20261;-72
2023/08/25 05:29:52;;;;;;;;;;;;;;;;;;6181588;28;19918;-70
2023/08/25 05:32:52;;;;;;;;;;;;;;;;;;6171639;28;19957;-77
2023/08/25 05:35:52;;;;;;;;;;;;;;;;;;6185573;28;20321;-71
2023/08/25 05:38:53;;;;;;;;;;;;;;;;;;6189887;28;20363;-72
2023/08/25 05:41:53;;;;;;;;;;;;;;;;;;6192259;28;19918;-72
2023/08/25 05:44:53;;;;;;;;;;;;;;;;;;6186818;28;19975;-72
2023/08/25 05:47:53;;;;;;;;;;;;;;;;;;6197962;28;19960;-72
2023/08/25 05:50:53;;;;;;;;;;;;;;;;;;6187937;28;19929;-72
2023/08/25 05:53:53;;;;;;;;;;;;;;;;;;6197032;28;19988;-72
2023/08/25 05:56:54;;;;;;;;;;;;;;;;;;6200090;28;20364;-72
2023/08/25 05:59:54;;;;;;;;;;;;;;;;;;6183512;28;19920;-72
2023/08/25 06:02:54;;;;;;;;;;;;;;;;;;6181204;28;19921;-73
2023/08/25 06:05:54;;;;;;;;;;;;;;;;;;5839945;28;10000229;-71
2023/08/25 06:08:54;;;;;;;;;;;;;;;;;;6176334;28;19918;-71
2023/08/25 06:11:54;;;;;;;;;;;;;;;;;;6192712;28;19914;-71
2023/08/25 06:14:54;;;;;;;;;;;;;;;;;;6184085;28;19910;-78
2023/08/25 06:17:54;;;;;;;;;;;;;;;;;;6199103;28;19909;-72
2023/08/25 06:20:54;;;;;;;;;;;;;;;;;;6186340;28;19953;-71
2023/08/25 06:23:55;;;;;;;;;;;;;;;;;;6193214;28;19956;-70
2023/08/25 06:26:55;;;;;;;;;;;;;;;;;;6194968;28;19921;-72
2023/08/25 06:29:55;;;;;;;;;;;;;;;;;;6178069;28;20399;-72
2023/08/25 06:32:55;;;;;;;;;;;;;;;;;;6181672;28;19914;-72
2023/08/25 06:35:56;;;;;;;;;;;;;;;;;;6181953;28;19933;-72
2023/08/25 06:38:56;;;;;;;;;;;;;;;;;;6183367;28;20443;-73
2023/08/25 06:41:57;;;;;;;;;;;;;;;;;;6181511;28;19940;-82
2023/08/25 06:44:57;;;;;;;;;;;;;;;;;;6188020;28;19925;-72
2023/08/25 06:47:57;;;;;;;;;;;;;;;;;;6180950;28;19933;-74
2023/08/25 06:50:57;;;;;;;;;;;;;;;;;;6185610;28;19920;-75
2023/08/25 06:54:01;;;;;;;;;;;;;;;;;;6181724;28;19921;-75
2023/08/25 06:57:01;;;;;;;;;;;;;;;;;;6171191;28;20509;-75
2023/08/25 07:00:01;;;;;;;;;;;;;;;;;;6181410;28;19913;-75
2023/08/25 07:03:03;;;;;;;;;;;;;;;;;;6178530;28;20000;-75
2023/08/25 07:06:05;;;;;;;;;;;;;;;;;;6186036;28;19921;-74
2023/08/25 07:09:06;;;;;;;;;;;;;;;;;;5839794;28;9999825;-75
2023/08/25 07:12:06;;;;;;;;;;;;;;;;;;6190492;28;19952;-74
2023/08/25 07:15:06;;;;;;;;;;;;;;;;;;6188882;28;19961;-74
2023/08/25 07:18:06;;;;;;;;;;;;;;;;;;6190114;28;20082;-74
2023/08/25 07:21:06;;;;;;;;;;;;;;;;;;6185990;28;19910;-74
2023/08/25 07:24:06;;;;;;;;;;;;;;;;;;6197000;28;19910;-74
2023/08/25 07:27:06;;;;;;;;;;;;;;;;;;6198126;28;20352;-74
2023/08/25 07:30:07;;;;;;;;;;;;;;;;;;6194154;28;19921;-74
2023/08/25 07:33:07;;;;;;;;;;;;;;;;;;6196417;28;20000;-74
2023/08/25 07:36:07;;;;;;;;;;;;;;;;;;6197320;28;19905;-74
2023/08/25 07:39:07;;;;;;;;;;;;;;;;;;6197467;28;20380;-74
2023/08/25 07:42:07;;;;;;;;;;;;;;;;;;6197246;28;20331;-75
2023/08/25 07:45:07;;;;;;;;;;;;;;;;;;6204741;28;19910;-74
2023/08/25 07:48:08;;;;;;;;;;;;;;;;;;6197091;28;20000;-75
2023/08/25 07:51:08;;;;;;;;;;;;;;;;;;6195546;28;19968;-75
2023/08/25 07:54:08;;;;;;;;;;;;;;;;;;6197024;28;20348;-75
2023/08/25 07:57:08;;;;;;;;;;;;;;;;;;6197800;28;19921;-76
2023/08/25 08:00:12;;;;;;;;;;;;;;;;;;6195280;28;19936;-75
2023/08/25 08:03:13;;;;;;;;;;;;;;;;;;6195082;28;19922;-76
2023/08/25 08:06:13;;;;;;;;;;;;;;;;;;6195770;28;19933;-75
2023/08/25 08:09:13;;;;;;;;;;;;;;;;;;6197097;28;19917;-74
2023/08/25 08:12:13;;;;;;;;;;;;;;;;;;6178881;28;19991;-80
2023/08/25 08:15:14;;;;;;;;;;;;;;;;;;6195065;28;20021;-74
2023/08/25 08:18:14;;;;;;;;;;;;;;;;;;6194837;28;20295;-75
2023/08/25 08:21:14;;;;;;;;;;;;;;;;;;6196663;28;20008;-74
2023/08/25 08:24:14;;;;;;;;;;;;;;;;;;6196714;28;19920;-75
2023/08/25 08:27:18;;;;;;;;;;;;;;;;;;6197183;28;19968;-75
2023/08/25 08:30:19;;;;;;;;;;;;;;;;;;6195271;28;19909;-75
2023/08/25 08:33:19;;;;;;;;;;;;;;;;;;6179054;28;20377;-75
2023/08/25 08:36:19;;;;;;;;;;;;;;;;;;6192831;28;19910;-75
2023/08/25 08:39:19;;;;;;;;;;;;;;;;;;6196695;28;19971;-74
2023/08/25 08:42:19;;;;;;;;;;;;;;;;;;6195568;28;19921;-74
2023/08/25 08:45:19;;;;;;;;;;;;;;;;;;6212515;28;20340;-75
2023/08/25 08:48:20;;;;;;;;;;;;;;;;;;6206139;28;20450;-74
2023/08/25 08:51:21;;;;;;;;;;;;;;;;;;6196786;28;19940;-76
2023/08/25 08:54:21;;;;;;;;;;;;;;;;;;6194140;28;19913;-75
2023/08/25 08:57:21;;;;;;;;;;;;;;;;;;6196039;28;19933;-69
2023/08/25 09:00:21;;;;;;;;;;;;;;;;;;6194139;28;20341;-69
2023/08/25 09:03:21;;;;;;;;;;;;;;;;;;6195424;28;19925;-69
2023/08/25 09:06:21;;;;;;;;;;;;;;;;;;6196515;28;19948;-70
2023/08/25 09:09:23;;;;;;;;;;;;;;;;;;5862653;28;9999691;-70
2023/08/25 09:12:23;;;;;;;;;;;;;;;;;;6204890;28;19910;-69
2023/08/25 09:15:23;;;;;;;;;;;;;;;;;;6176603;28;19917;-70
2023/08/25 09:18:25;;;;;;;;;;;;;;;;;;6189394;28;19909;-70
2023/08/25 09:21:25;;;;;;;;;;;;;;;;;;6200848;28;19914;-69
2023/08/25 09:24:25;;;;;;;;;;;;;;;;;;6183189;28;19910;-70
2023/08/25 09:27:25;;;;;;;;;;;;;;;;;;6202933;28;19914;-70
2023/08/25 09:30:25;;;;;;;;;;;;;;;;;;6198546;28;20384;-70
2023/08/25 09:33:25;;;;;;;;;;;;;;;;;;6200904;28;19972;-70
2023/08/25 09:36:25;;;;;;;;;;;;;;;;;;6182474;28;19916;-70
2023/08/25 09:39:25;;;;;;;;;;;;;;;;;;6200547;28;19910;-72
2023/08/25 09:42:25;;;;;;;;;;;;;;;;;;6207297;28;19987;-72
2023/08/25 09:45:26;;;;;;;;;;;;;;;;;;6207796;28;19968;-70
2023/08/25 09:48:26;;;;;;;;;;;;;;;;;;6198689;28;19917;-71
2023/08/25 09:51:27;;;;;;;;;;;;;;;;;;6200265;28;20332;-71
2023/08/25 09:54:27;;;;;;;;;;;;;;;;;;6199824;28;20265;-71
2023/08/25 09:57:27;;;;;;;;;;;;;;;;;;6200689;28;19925;-71
2023/08/25 10:00:27;;;;;;;;;;;;;;;;;;6188132;28;19961;-72
2023/08/25 10:03:27;;;;;;;;;;;;;;;;;;6175733;28;19918;-71
2023/08/25 10:06:28;;;;;;;;;;;;;;;;;;6176148;28;19914;-71
2023/08/25 10:09:28;;;;;;;;;;;;;;;;;;6208779;28;20395;-77
2023/08/25 10:12:28;;;;;;;;;;;;;;;;;;6222651;28;20371;-77
2023/08/25 10:15:30;;;;;;;;;;;;;;;;;;6186022;28;19925;-76
2023/08/25 10:18:30;;;;;;;;;;;;;;;;;;6198088;28;19945;-78
2023/08/25 10:21:30;;;;;;;;;;;;;;;;;;6200471;28;19919;-77
2023/08/25 10:24:30;;;;;;;;;;;;;;;;;;6182988;28;19909;-77
2023/08/25 10:27:30;;;;;;;;;;;;;;;;;;6196609;28;20237;-77
2023/08/25 10:30:31;;;;;;;;;;;;;;;;;;6197113;28;19971;-78
2023/08/25 10:33:31;;;;;;;;;;;;;;;;;;6199953;28;19910;-80
2023/08/25 10:36:31;;;;;;;;;;;;;;;;;;6200007;28;19913;-80
2023/08/25 10:39:31;;;;;;;;;;;;;;;;;;6198765;28;19945;-80
2023/08/25 10:42:31;;;;;;;;;;;;;;;;;;6213310;28;19971;-80
2023/08/25 10:45:32;;;;;;;;;;;;;;;;;;6221865;28;20287;-78
2023/08/25 10:48:32;;;;;;;;;;;;;;;;;;6201422;28;19909;-79
2023/08/25 10:51:33;;;;;;;;;;;;;;;;;;6199031;28;19917;-83
2023/08/25 10:54:33;;;;;;;;;;;;;;;;;;6199025;28;20292;-78
2023/08/25 10:57:34;;;;;;;;;;;;;;;;;;6197365;28;19916;-78
2023/08/25 11:00:34;;;;;;;;;;;;;;;;;;6198228;28;19910;-79
2023/08/25 11:03:34;;;;;;;;;;;;;;;;;;6221873;28;19945;-80
2023/08/25 11:06:35;;;;;;;;;;;;;;;;;;6221195;28;19928;-80
2023/08/25 11:09:35;;;;;;;;;;;;;;;;;;6186528;28;19924;-79
2023/08/25 11:12:35;;;;;;;;;;;;;;;;;;6218923;28;20031;-80
2023/08/25 11:15:35;;;;;;;;;;;;;;;;;;6181009;28;19916;-80
2023/08/25 11:18:35;;;;;;;;;;;;;;;;;;6213681;28;19909;-80
2023/08/25 11:21:35;;;;;;;;;;;;;;;;;;6215899;28;19921;-80
2023/08/25 11:24:36;;;;;;;;;;;;;;;;;;6198641;28;19910;-80
2023/08/25 11:27:38;;;;;;;;;;;;;;;;;;6205001;28;19917;-81
2023/08/25 11:30:39;;;;;;;;;;;;;;;;;;6197516;28;19920;-81
2023/08/25 11:33:40;;;;;;;;;;;;;;;;;;6198874;28;19906;-84
2023/08/25 11:36:40;;;;;;;;;;;;;;;;;;6198685;28;19992;-81
2023/08/25 11:39:41;;;;;;;;;;;;;;;;;;6211959;28;19923;-81
2023/08/25 11:42:41;;;;;;;;;;;;;;;;;;6221530;28;20000;-81
2023/08/25 11:45:41;;;;;;;;;;;;;;;;;;6204028;28;19931;-81
2023/08/25 11:48:41;;;;;;;;;;;;;;;;;;6197928;28;19906;-81
2023/08/25 11:51:42;;;;;;;;;;;;;;;;;;6198218;28;19913;-81
2023/08/25 11:54:42;;;;;;;;;;;;;;;;;;6197083;28;19968;-80
2023/08/25 11:57:42;;;;;;;;;;;;;;;;;;6221134;28;20405;-80
2023/08/25 12:00:42;;;;;;;;;;;;;;;;;;6203050;28;19918;-80
2023/08/25 12:03:43;;;;;;;;;;;;;;;;;;6197164;28;19929;-79
2023/08/25 12:06:44;;;;;;;;;;;;;;;;;;6194193;28;20256;-82
2023/08/25 12:09:44;;;;;;;;;;;;;;;;;;6222294;28;19956;-82
2023/08/25 12:12:45;;;;;;;;;;;;;;;;;;6202977;28;19916;-83
2023/08/25 12:15:47;;;;;;;;;;;;;;;;;;6201867;28;19909;-82
2023/08/25 12:18:48;;;;;;;;;;;;;;;;;;6195381;28;19917;-83
2023/08/25 12:21:48;;;;;;;;;;;;;;;;;;6180867;28;19917;-83
2023/08/25 12:24:48;;;;;;;;;;;;;;;;;;6198145;28;19949;-83
2023/08/25 12:27:49;;;;;;;;;;;;;;;;;;6197406;28;19909;-83
2023/08/25 12:30:49;;;;;;;;;;;;;;;;;;6196009;28;19940;-83
2023/08/25 12:33:49;;;;;;;;;;;;;;;;;;6199638;28;19959;-81
2023/08/25 12:36:49;;;;;;;;;;;;;;;;;;6200131;28;20288;-82
2023/08/25 12:39:49;;;;;;;;;;;;;;;;;;6207425;28;19961;-82
2023/08/25 12:42:51;;;;;;;;;;;;;;;;;;6197129;28;20004;-80
2023/08/25 12:45:51;;;;;;;;;;;;;;;;;;6195513;28;19906;-81
2023/08/25 12:48:52;;;;;;;;;;;;;;;;;;6197281;28;19964;-85
2023/08/25 12:51:52;;;;;;;;;;;;;;;;;;6196670;28;20380;-79
2023/08/25 12:54:52;;;;;;;;;;;;;;;;;;6218790;28;19972;-80
2023/08/25 12:57:54;;;;;;;;;;;;;;;;;;6197208;28;19909;-80
2023/08/25 13:00:54;;;;;;;;;;;;;;;;;;6177152;28;19914;-80
2023/08/25 13:03:54;;;;;;;;;;;;;;;;;;6208269;28;19960;-81
2023/08/25 13:06:54;;;;;;;;;;;;;;;;;;6200174;28;19942;-82
2023/08/25 13:09:54;;;;;;;;;;;;;;;;;;6196494;28;19914;-80
2023/08/25 13:12:54;;;;;;;;;;;;;;;;;;6190353;28;19910;-80
2023/08/25 13:15:56;;;;;;;;;;;;;;;;;;6191658;28;20284;-79
2023/08/25 13:18:56;;;;;;;;;;;;;;;;;;6196245;28;20360;-80
2023/08/25 13:21:56;;;;;;;;;;;;;;;;;;6187604;28;19981;-80
2023/08/25 13:24:56;;;;;;;;;;;;;;;;;;6199576;28;19909;-79
2023/08/25 13:27:56;;;;;;;;;;;;;;;;;;6197165;28;19913;-79
2023/08/25 13:30:58;;;;;;;;;;;;;;;;;;6195178;28;20350;-84
2023/08/25 13:33:58;;;;;;;;;;;;;;;;;;6196236;28;19913;-80
2023/08/25 13:36:58;;;;;;;;;;;;;;;;;;6194416;28;19952;-80
2023/08/25 13:39:58;;;;;;;;;;;;;;;;;;6207644;28;19952;-72
2023/08/25 13:42:58;;;;;;;;;;;;;;;;;;6197872;28;19985;-72
2023/08/25 13:45:59;;;;;;;;;;;;;;;;;;6209273;28;20261;-72
2023/08/25 13:48:59;;;;;;;;;;;;;;;;;;6196057;28;20076;-72
2023/08/25 13:51:59;;;;;;;;;;;;;;;;;;6196620;28;19913;-72
2023/08/25 13:54:59;;;;;;;;;;;;;;;;;;6189394;28;20007;-72
2023/08/25 13:57:59;;;;;;;;;;;;;;;;;;6197043;28;19909;-72
2023/08/25 14:01:00;;;;;;;;;;;;;;;;;;6197397;28;20372;-72
2023/08/25 14:04:00;;;;;;;;;;;;;;;;;;6180379;28;19917;-72
2023/08/25 14:07:00;;;;;;;;;;;;;;;;;;6207205;28;19964;-71
2023/08/25 14:10:00;;;;;;;;;;;;;;;;;;6209957;28;19921;-73
2023/08/25 14:13:00;;;;;;;;;;;;;;;;;;6189743;28;19957;-74
2023/08/25 14:16:00;;;;;;;;;;;;;;;;;;6198142;28;19992;-71
2023/08/25 14:19:00;;;;;;;;;;;;;;;;;;6181867;28;20274;-71
2023/08/25 14:22:00;;;;;;;;;;;;;;;;;;6188551;28;19935;-71
2023/08/25 14:25:01;;;;;;;;;;;;;;;;;;6223957;28;19951;-71
2023/08/25 14:28:04;;;;;;;;;;;;;;;;;;6199838;28;19916;-72
2023/08/25 14:31:07;;;;;;;;;;;;;;;;;;6198351;28;20001;-70
2023/08/25 14:34:07;;;;;;;;;;;;;;;;;;6198992;28;19905;-72
2023/08/25 14:37:08;;;;;;;;;;;;;;;;;;6199752;28;20284;-72
2023/08/25 14:40:08;;;;;;;;;;;;;;;;;;6182844;28;20040;-71
2023/08/25 14:43:08;;;;;;;;;;;;;;;;;;6199566;28;19913;-73
2023/08/25 14:46:09;;;;;;;;;;;;;;;;;;6180252;28;19968;-72
2023/08/25 14:49:09;;;;;;;;;;;;;;;;;;6213987;28;19964;-79
2023/08/25 14:52:09;;;;;;;;;;;;;;;;;;6205424;28;20029;-77
2023/08/25 14:55:09;;;;;;;;;;;;;;;;;;6198986;28;19939;-76
2023/08/25 14:58:10;;;;;;;;;;;;;;;;;;6210995;28;19913;-76
2023/08/25 15:01:11;;;;;;;;;;;;;;;;;;6193706;28;20312;-78
2023/08/25 15:04:11;;;;;;;;;;;;;;;;;;6184476;28;19921;-77
2023/08/25 15:07:11;;;;;;;;;;;;;;;;;;6189106;28;19910;-78
2023/08/25 15:10:11;;;;;;;;;;;;;;;;;;6174549;28;19926;-77
2023/08/25 15:13:12;;;;;;;;;;;;;;;;;;6174111;28;20449;-77
2023/08/25 15:16:12;;;;;;;;;;;;;;;;;;6149446;28;19945;-76
2023/08/25 15:19:12;;;;;;;;;;;;;;;;;;6171607;28;20060;-76
2023/08/25 15:22:12;;;;;;;;;;;;;;;;;;6185863;28;19936;-78
2023/08/25 15:25:12;;;;;;;;;;;;;;;;;;6197261;28;20349;-77
2023/08/25 15:28:12;;;;;;;;;;;;;;;;;;6178395;28;19924;-82
2023/08/25 15:31:14;;;;;;;;;;;;;;;;;;6181090;28;19913;-77
2023/08/25 15:34:14;;;;;;;;;;;;;;;;;;6178507;28;20310;-76
2023/08/25 15:37:14;;;;;;;;;;;;;;;;;;6179272;28;20024;-77
2023/08/25 15:40:16;;;;;;;;;;;;;;;;;;6179809;28;20341;-78
2023/08/25 15:43:17;;;;;;;;;;;;;;;;;;6178924;28;19910;-76
2023/08/25 15:46:17;;;;;;;;;;;;;;;;;;6190197;28;19964;-77
2023/08/25 15:49:17;;;;;;;;;;;;;;;;;;6182501;28;19945;-77
2023/08/25 15:52:17;;;;;;;;;;;;;;;;;;6179065;28;19906;-76
2023/08/25 15:55:18;;;;;;;;;;;;;;;;;;6176541;28;19921;-77
2023/08/25 15:58:18;;;;;;;;;;;;;;;;;;6174683;28;19945;-76
2023/08/25 16:01:18;;;;;;;;;;;;;;;;;;6188064;28;19949;-76
2023/08/25 16:04:18;;;;;;;;;;;;;;;;;;6203528;28;19914;-76
2023/08/25 16:07:19;;;;;;;;;;;;;;;;;;6198186;28;19920;-76
2023/08/25 16:10:19;;;;;;;;;;;;;;;;;;6197749;28;20324;-80
2023/08/25 16:13:19;;;;;;;;;;;;;;;;;;6197587;28;19920;-76
2023/08/25 16:16:19;;;;;;;;;;;;;;;;;;6199570;28;19960;-76
2023/08/25 16:19:19;;;;;;;;;;;;;;;;;;6197129;28;19942;-75
2023/08/25 16:22:19;;;;;;;;;;;;;;;;;;6197120;28;19921;-76
2023/08/25 16:25:19;;;;;;;;;;;;;;;;;;6196365;28;19921;-76
2023/08/25 16:28:19;;;;;;;;;;;;;;;;;;6197053;28;19910;-75
2023/08/25 16:31:20;;;;;;;;;;;;;;;;;;6202848;28;19920;-74
2023/08/25 16:34:20;;;;;;;;;;;;;;;;;;6220997;28;19913;-74
2023/08/25 16:37:20;;;;;;;;;;;;;;;;;;6193486;28;19937;-75
2023/08/25 16:40:22;;;;;;;;;;;;;;;;;;6197087;28;19921;-74
2023/08/25 16:43:23;;;;;;;;;;;;;;;;;;6189262;28;19981;-75
2023/08/25 16:46:23;;;;;;;;;;;;;;;;;;6194578;28;20424;-75
2023/08/25 16:49:23;;;;;;;;;;;;;;;;;;6196417;28;20008;-75
2023/08/25 16:52:23;;;;;;;;;;;;;;;;;;6196785;28;19906;-74
2023/08/25 16:55:24;;;;;;;;;;;;;;;;;;6203543;28;19967;-74
2023/08/25 16:58:24;;;;;;;;;;;;;;;;;;6221215;28;19995;-74
2023/08/25 17:01:24;;;;;;;;;;;;;;;;;;6195894;28;20032;-74
2023/08/25 17:04:25;;;;;;;;;;;;;;;;;;6203426;28;19917;-75
2023/08/25 17:07:25;;;;;;;;;;;;;;;;;;6196549;28;19957;-75
2023/08/25 17:10:25;;;;;;;;;;;;;;;;;;6196715;28;20376;-75
2023/08/25 17:13:25;;;;;;;;;;;;;;;;;;6213862;28;19909;-75
2023/08/25 17:16:26;;;;;;;;;;;;;;;;;;6192978;28;20090;-75
2023/08/25 17:19:26;;;;;;;;;;;;;;;;;;6196062;28;19909;-74
2023/08/25 17:22:28;;;;;;;;;;;;;;;;;;6197459;28;19918;-74
2023/08/25 17:25:28;;;;;;;;;;;;;;;;;;6195225;28;20011;-74
2023/08/25 17:28:29;;;;;;;;;;;;;;;;;;6205246;28;19917;-75
2023/08/25 17:31:32;;;;;;;;;;;;;;;;;;6218810;28;19906;-75
2023/08/25 17:34:32;;;;;;;;;;;;;;;;;;6205340;28;19913;-74
2023/08/25 17:37:32;;;;;;;;;;;;;;;;;;6197736;28;19960;-75
2023/08/25 17:40:32;;;;;;;;;;;;;;;;;;6225422;28;20431;-74
2023/08/25 17:43:32;;;;;;;;;;;;;;;;;;6211699;28;19914;-74
2023/08/25 17:46:32;;;;;;;;;;;;;;;;;;6196394;28;19921;-74
2023/08/25 17:49:32;;;;;;;;;;;;;;;;;;6224808;28;20362;-73
2023/08/25 17:52:33;;;;;;;;;;;;;;;;;;6207434;28;19993;-75
2023/08/25 17:55:33;;;;;;;;;;;;;;;;;;6201470;28;19917;-74
2023/08/25 17:58:33;;;;;;;;;;;;;;;;;;6176458;28;19978;-75
2023/08/25 18:01:33;;;;;;;;;;;;;;;;;;6174413;28;19926;-74
2023/08/25 18:04:33;;;;;;;;;;;;;;;;;;6187453;28;19922;-75
2023/08/25 18:07:33;;;;;;;;;;;;;;;;;;6182947;28;19909;-79
2023/08/25 18:10:33;;;;;;;;;;;;;;;;;;6199153;28;19914;-74
2023/08/25 18:13:35;;;;;;;;;;;;;;;;;;6214739;28;19992;-74
2023/08/25 18:16:35;;;;;;;;;;;;;;;;;;6198073;28;19910;-76
2023/08/25 18:19:35;;;;;;;;;;;;;;;;;;6183621;28;20317;-75
2023/08/25 18:22:35;;;;;;;;;;;;;;;;;;6199824;28;19917;-75
2023/08/25 18:25:35;;;;;;;;;;;;;;;;;;6199936;28;20363;-75
2023/08/25 18:28:35;;;;;;;;;;;;;;;;;;6202029;28;19914;-75
2023/08/25 18:31:35;;;;;;;;;;;;;;;;;;6221988;28;19921;-75
2023/08/25 18:34:36;;;;;;;;;;;;;;;;;;6221735;28;19913;-74
2023/08/25 18:37:36;;;;;;;;;;;;;;;;;;6207897;28;19916;-74
2023/08/25 18:40:36;;;;;;;;;;;;;;;;;;6192724;28;19921;-74
2023/08/25 18:43:36;;;;;;;;;;;;;;;;;;6175405;28;19914;-75
2023/08/25 18:46:37;;;;;;;;;;;;;;;;;;6201855;28;19922;-74
2023/08/25 18:49:37;;;;;;;;;;;;;;;;;;6217470;28;19925;-80
2023/08/25 18:52:38;;;;;;;;;;;;;;;;;;6207762;28;20402;-75
2023/08/25 18:55:38;;;;;;;;;;;;;;;;;;6215637;28;20357;-75
2023/08/25 18:58:38;;;;;;;;;;;;;;;;;;6199661;28;19910;-75
2023/08/25 19:01:38;;;;;;;;;;;;;;;;;;6196863;28;19925;-74
2023/08/25 19:04:39;;;;;;;;;;;;;;;;;;6215628;28;19920;-74
2023/08/25 19:07:39;;;;;;;;;;;;;;;;;;6200314;28;19955;-74
2023/08/25 19:10:39;;;;;;;;;;;;;;;;;;6199015;28;19909;-74
2023/08/25 19:13:41;;;;;;;;;;;;;;;;;;6198589;28;19914;-74
2023/08/25 19:16:41;;;;;;;;;;;;;;;;;;6196790;28;19914;-75
2023/08/25 19:19:41;;;;;;;;;;;;;;;;;;6192366;28;19909;-75
2023/08/25 19:22:41;;;;;;;;;;;;;;;;;;6207636;28;19949;-75
2023/08/25 19:25:41;;;;;;;;;;;;;;;;;;6198754;28;19935;-74
2023/08/25 19:28:41;;;;;;;;;;;;;;;;;;6199618;28;19910;-74
2023/08/25 19:31:42;;;;;;;;;;;;;;;;;;6197431;28;19996;-76
2023/08/25 19:34:42;;;;;;;;;;;;;;;;;;6199338;28;20336;-76
2023/08/25 19:37:42;;;;;;;;;;;;;;;;;;6210610;28;19925;-75
2023/08/25 19:40:42;;;;;;;;;;;;;;;;;;6218089;28;20090;-75
2023/08/25 19:43:43;;;;;;;;;;;;;;;;;;6215914;28;20012;-74
2023/08/25 19:46:43;;;;;;;;;;;;;;;;;;6203771;28;20307;-74
2023/08/25 19:49:43;;;;;;;;;;;;;;;;;;6186215;28;19920;-75
2023/08/25 19:52:43;;;;;;;;;;;;;;;;;;6198367;28;19965;-75
2023/08/25 19:55:44;;;;;;;;;;;;;;;;;;6213164;28;19910;-74
2023/08/25 19:58:49;;;;;;;;;;;;;;;;;;6201166;28;19919;-75
2023/08/25 20:01:50;;;;;;;;;;;;;;;;;;6210763;28;19922;-75
2023/08/25 20:04:52;;;;;;;;;;;;;;;;;;6197836;28;19906;-75
2023/08/25 20:07:53;;;;;;;;;;;;;;;;;;6198140;28;19914;-75
2023/08/25 20:10:53;;;;;;;;;;;;;;;;;;6201898;28;20327;-75
2023/08/25 20:13:53;;;;;;;;;;;;;;;;;;6211773;28;20056;-74
2023/08/25 20:16:54;;;;;;;;;;;;;;;;;;6201396;28;19913;-74
2023/08/25 20:19:54;;;;;;;;;;;;;;;;;;6197301;28;19913;-75
2023/08/25 20:22:54;;;;;;;;;;;;;;;;;;6198196;28;20051;-75
2023/08/25 20:25:54;;;;;;;;;;;;;;;;;;6196758;28;19917;-74
2023/08/25 20:28:56;;;;;;;;;;;;;;;;;;6197212;28;19986;-75